GMTN  Saniat Rmel Airport

Add Bookmark

Morocco

Status IATA
Operational TTU
Latitude Longitude
35° 35' 39" N 5° 19' 12" W
35.594299 -5.320020
Local (DST + 1) UTC (GMT 0)
Nov 1, 2014 05:47 Nov 1, 2014 05:47
Sunrise-Sunset Local UTC
Begin Civil Twilight 06:15 06:15
Sunrise 06:42 06:42
Sunset 05:27 17:27
End Civil Twilight 05:53 17:53

Current Weather

METAR Observed
GMTN 010500Z AUTO 11007KT 9000NDV /// 19/15 Q1021 Sat, Nov 1, 2014 @ 05:00 UTC
(47 Minutes ago)
Wind Conditions
110° at 7 knots (13 kph)
  • No significant weather
Temperatures Readings Precipitation
Current Temp 19°C (66°F)
Dewpoint 15°C (59°F)
Humidity 78%
Altimeter 30.15"Hg
Sea Level Pressure 1021mb
Field Elevation 32.81'
None Recorded

Additional weather within a 92.6km radius of GMTN

Map ICAO Location
GMTT 55.9km W (285°)
LXGB 61.9km N (360°)

24 Hour Weather History

Loading
-

24 Hour Weather Graphs

Loading
-

CheckWX.com is intended as a tool to help pilots better visualize weather data. It is not intended as a substitute for an official weather briefing obtained from a Flight Service Station. CheckWX.com does not meet the FAA requirements for an official pre-flight weather briefing. Therefore, it's important that pilots still call and obtain an official FSS pre-flight weather briefing.